Aputiteeq

KL  EN  DA
ASIAQ
Weather Now GREENLAND SURVEY
Updated [WGT/WGST] Temperature [°C] Wind [m/s] Air pressure [hPa] Relative humidity [%] Precipitation [mm]
Present Wind chill Speed Max
17.04 23:00-6,7-9,41,5 ⇓2,1100295n/a
17.04 22:00-6,9-10,62,1 ⇙3,1100295n/a
17.04 21:00-6,9-11,32,6 ⇓3,6100395n/a
17.04 20:00n/an/an/an/an/an/an/a
17.04 19:00-6,6-13,25,1 ⇙7,2100395n/a
17.04 18:00-6,8-11,22,6 ⇓4,1100394n/a
17.04 17:00-7,1-10,92,1 ⇘3,6100392n/a
17.04 16:00-6,7-14,46,7 ⇙8,8100390n/a
17.04 15:00-6,9-16,19,8 ⇙12,4100390n/a
17.04 14:00-7,0-14,56,2 ⇙9,3100390n/a
17.04 13:00-7,1-16,911,3 ⇙16,0100389n/a
17.04 12:00-7,4-17,311,3 ⇙14,4100390n/a
17.04 11:00-7,6-18,012,4 ⇙15,4100390n/a
17.04 10:00-7,8-18,914,4 ⇙17,5100390n/a
17.04 09:00-7,7-18,814,4 ⇙19,0100490n/a
17.04 08:00-8,0-18,712,9 ⇙16,0100491n/a
17.04 07:00-8,2-19,313,9 ⇐19,0100391n/a
17.04 06:00-8,3-18,310,8 ⇙15,4100392n/a
17.04 05:00-8,3-17,07,7 ⇙12,4100292n/a
17.04 04:00-8,1-18,712,4 ⇐17,0100192n/a
17.04 03:00-7,9-17,810,8 ⇐14,4100193n/a
17.04 02:00-7,5-18,313,9 ⇐19,0100192n/a
17.04 01:00-7,2-16,710,3 ⇙13,9100192n/a
17.04 00:00-6,9-17,513,9 ⇐20,1100092n/a
16.04 23:00-6,6-16,812,9 ⇐18,5100092n/a
Position: (67.78166666666,-32.2841666666)

[Back]